Latest Coastal Weather Observations for Dunalley

IDT60701

Issued at 6:11 am EST Tuesday 31 May 2016 (issued every 10 minutes, with the page automatically refreshed every 10 minutes)

About coastal observations | Map of coastal stations | Coastal observations for TAS | Marine services | Other Formats
Station Details ID: 094254 Name: DUNALLEY (STROUD POINT) Lat: -42.90 Lon: 147.79 Height: 12.43 m
Data from the previous 72 hours. | See also: Recent months at Dunalley
Date/Time
EST
Temp

°C
Wind Pressure Rain
since 9am
mm
Weather Cloud Vis
km
Sea
Height
m
Swell
Dir
 
Speed
knots
Gust
knots
hPa Trend Height
m
Period
s
Dir
31/06:00am 5.1 WNW 5 6 1032.8 - 0.0 - - - - - - -
31/05:30am 4.5 WNW 4 6 1032.6 - 0.0 - - - - - - -
31/05:00am 5.5 WNW 4 5 1032.5 - 0.0 - - - - - - -
31/04:30am 5.1 WNW 2 4 1032.3 - 0.0 - - - - - - -
31/04:00am 5.3 WNW 1 4 1032.0 - 0.0 - - - - - - -
31/03:30am 5.8 WNW 3 5 1032.0 - 0.0 - - - - - - -
31/03:00am 5.7 WNW 5 7 1032.1 - 0.0 - - - - - - -
31/02:30am 5.4 WNW 2 4 1032.2 - 0.0 - - - - - - -
31/02:00am 5.5 WNW 3 4 1032.1 - 0.0 - - - - - - -
31/01:30am 5.6 WNW 1 3 1032.0 - 0.0 - - - - - - -
31/01:00am 5.5 WNW 3 5 1032.1 - 0.0 - - - - - - -
31/12:30am 5.5 WNW 2 4 1032.1 - 0.0 - - - - - - -
31/12:00am 5.3 WNW 3 6 1032.2 - 0.0 - - - - - - -
 
Date/Time
EST
Temp

°C
Wind Pressure Rain
since 9am
mm
Weather Cloud Vis
km
Sea
Height
m
Swell
Dir
 
Speed
knots
Gust
knots
hPa Trend Height
m
Period
s
Dir
30/11:30pm 5.1 WNW 5 8 1032.1 - 0.0 - - - - - - -
30/11:00pm 5.9 WNW 8 10 1032.0 - 0.0 - - - - - - -
30/10:30pm 4.8 WNW 5 7 1032.0 - 0.0 - - - - - - -
30/10:00pm 5.4 WNW 2 3 1031.9 - 0.0 - - - - - - -
30/09:30pm 6.0 CALM 0 2 1031.8 - 0.0 - - - - - - -
30/09:00pm 4.8 WNW 3 4 1031.5 - 0.0 - - - - - - -
30/08:30pm 5.7 WNW 4 5 1031.2 - 0.0 - - - - - - -
30/08:00pm 5.5 WNW 6 7 1031.0 - 0.0 - - - - - - -
30/07:30pm 6.9 WNW 7 8 1030.8 - 0.0 - - - - - - -
30/07:00pm 6.7 WNW 4 5 1030.7 - 0.0 - - - - - - -
30/06:30pm 6.6 WNW 5 6 1030.4 - 0.0 - - - - - - -
30/06:00pm 6.8 W 6 6 1030.1 - 0.0 - - - - - - -
30/05:30pm 6.8 W 5 5 1029.8 - 0.0 - - - - - - -
30/05:00pm 6.8 W 5 6 1029.4 - 0.0 - - - - - - -
30/04:30pm 7.5 W 4 5 1029.2 - 0.0 - - - - - - -
30/04:00pm 9.4 W 3 3 1028.9 - 0.0 - - - - - - -
30/03:30pm 10.0 W 3 5 1028.6 - 0.0 - - - - - - -
30/03:00pm 10.2 W 5 7 1028.5 - 0.0 - - - - - - -
30/02:30pm 9.3 WNW 3 6 1028.3 - 0.0 - - - - - - -
30/02:00pm 10.8 WNW 5 7 1028.1 - 0.0 - - - - - - -
30/01:30pm 11.0 W 7 9 1028.2 - 0.0 - - - - - - -
30/01:00pm 10.9 W 8 9 1028.3 - 0.0 - - - - - - -
30/12:30pm 10.3 W 9 12 1028.3 - 0.0 - - - - - - -
30/12:00pm 10.8 W 9 12 1028.3 - 0.0 - - - - - - -
30/11:30am 10.4 W 7 10 1028.5 - 0.0 - - - - - - -
30/11:00am 10.5 WSW 7 9 1028.5 - 0.0 - - - - - - -
30/10:30am 9.7 W 9 11 1028.5 - 0.0 - - - - - - -
30/10:00am 9.8 W 9 12 1028.1 - 0.0 - - - - - - -
30/09:30am 9.5 W 9 11 1027.8 - 0.0 - - - - - - -
30/09:00am 9.4 W 10 11 1027.6 - 3.4 - - - - - - -
30/08:30am 9.2 WSW 11 13 1027.3 - 3.4 - - - - - - -
30/08:00am 9.1 WSW 11 13 1027.0 - 3.4 - - - - - - -
30/07:30am 9.2 WSW 11 13 1026.6 - 3.4 - - - - - - -
30/07:00am 9.2 WSW 11 13 1026.3 - 3.4 - - - - - - -
30/06:30am 9.3 WSW 11 13 1026.0 - 3.4 - - - - - - -
30/06:00am 9.2 W 10 12 1025.5 - 3.4 - - - - - - -
30/05:30am 9.4 WSW 12 14 1025.2 - 3.4 - - - - - - -
30/05:00am 9.6 WSW 11 13 1024.9 - 3.4 - - - - - - -
30/04:30am 9.6 WSW 11 13 1024.6 - 3.4 - - - - - - -
30/04:00am 9.6 SW 10 12 1024.3 - 3.4 - - - - - - -
30/03:30am 9.6 SW 12 13 1024.0 - 3.4 - - - - - - -
30/03:00am 9.6 SW 10 12 1023.8 - 3.4 - - - - - - -
30/02:30am 9.5 SW 11 12 1023.8 - 3.4 - - - - - - -
30/02:00am 9.6 SW 13 15 1023.4 - 3.4 - - - - - - -
30/01:30am 9.4 SW 10 12 1023.0 - 3.4 - - - - - - -
30/01:00am 9.4 WSW 10 12 1022.7 - 3.4 - - - - - - -
30/12:30am 9.6 SW 10 11 1022.6 - 3.4 - - - - - - -
30/12:00am 10.0 SW 10 12 1022.6 - 3.4 Recent precip. - - - - - -
 
Date/Time
EST
Temp

°C
Wind Pressure Rain
since 9am
mm
Weather Cloud Vis
km
Sea
Height
m
Swell
Dir
 
Speed
knots
Gust
knots
hPa Trend Height
m
Period
s
Dir
29/11:30pm 10.1 SW 8 10 1022.3 - 3.2 - - - - - - -
29/11:00pm 10.2 SW 9 11 1022.1 - 3.2 - - - - - - -
29/10:30pm 10.1 WSW 11 14 1021.8 - 3.2 - - - - - - -
29/10:00pm 10.0 WSW 11 13 1021.6 - 3.2 - - - - - - -
29/09:30pm 10.1 SW 10 12 1021.6 - 3.2 - - - - - - -
29/09:00pm 9.9 WSW 10 11 1021.2 - 2.8 - - - - - - -
29/08:30pm 9.4 SSW 5 8 1021.0 - 2.8 - - - - - - -
29/08:00pm 9.8 S 5 6 1020.6 - 2.8 - - - - - - -
29/07:30pm 10.1 SSW 10 11 1020.4 - 2.8 - - - - - - -
29/07:00pm 10.4 SW 9 11 1019.9 - 2.8 - - - - - - -
29/06:30pm 9.9 SW 11 14 1019.3 - 2.8 - - - - - - -
29/06:00pm 10.4 SW 11 13 1018.9 - 2.8 - - - - - - -
29/05:30pm 10.5 WSW 12 13 1018.5 - 2.8 - - - - - - -
29/05:00pm 10.4 WSW 11 13 1018.0 - 2.8 - - - - - - -
29/04:30pm 10.5 WSW 13 14 1017.6 - 2.6 - - - - - - -
29/04:00pm 10.5 WSW 11 13 1017.4 - 2.4 - - - - - - -
29/03:30pm 10.7 WSW 11 13 1017.1 - 2.2 - - - - - - -
29/03:00pm 10.9 SW 8 10 1016.8 - 2.2 Rain - - - - - -
29/02:30pm 10.3 SW 11 13 1016.5 - 2.0 - - - - - - -
29/02:00pm 11.1 WSW 15 18 1016.0 - 1.6 - - - - - - -
29/01:30pm 11.3 WSW 16 19 1015.8 - 1.4 - - - - - - -
29/01:00pm 11.5 WSW 11 15 1015.5 - 1.4 - - - - - - -
29/12:30pm 11.3 W 12 15 1015.3 - 1.4 - - - - - - -
29/12:00pm 11.0 W 11 18 1015.3 - 1.4 - - - - - - -
29/11:30am 11.0 W 11 13 1015.4 - 1.4 - - - - - - -
29/11:00am 10.6 W 11 13 1015.4 - 1.4 - - - - - - -
29/10:30am 9.8 W 7 9 1015.3 - 1.0 - - - - - - -
29/10:00am 10.3 WSW 12 13 1015.1 - 0.4 - - - - - - -
29/09:30am 10.2 WSW 12 14 1014.6 - 0.2 - - - - - - -
29/09:00am 9.9 WSW 15 17 1014.3 - 7.8 Rain - - - - - -
29/08:30am 10.0 WSW 8 13 1013.9 - 6.4 - - - - - - -
29/08:00am 9.9 WSW 8 10 1013.6 - 4.8 - - - - - - -
29/07:30am 9.9 WSW 9 10 1013.1 - 4.0 - - - - - - -
29/07:00am 10.2 SW 10 11 1012.7 - 3.0 - - - - - - -
29/06:30am 9.8 WSW 11 14 1012.3 - 2.2 - - - - - - -
29/06:00am 9.7 WSW 15 17 1011.9 - 2.0 Recent precip. - - - - - -
29/05:30am 9.7 W 16 19 1011.4 - 2.0 - - - - - - -
29/05:00am 9.7 W 16 18 1011.0 - 1.8 - - - - - - -
29/04:30am 9.5 W 17 20 1010.8 - 1.8 - - - - - - -
29/04:00am 10.0 WSW 18 22 1010.7 - 1.8 - - - - - - -
29/03:30am 9.9 W 17 19 1010.6 - 1.8 - - - - - - -
29/03:00am 9.6 W 14 16 1010.6 - 1.2 Recent precip. - - - - - -
29/02:30am 9.6 WSW 16 18 1010.3 - 1.0 - - - - - - -
29/02:00am 9.6 W 15 19 1010.3 - 1.0 - - - - - - -
29/01:30am 9.6 W 15 18 1010.1 - 1.0 - - - - - - -
29/01:00am 9.2 W 15 18 1010.0 - 1.0 - - - - - - -
29/12:30am 9.5 W 15 19 1009.9 - 0.0 - - - - - - -
29/12:00am 9.8 W 13 20 1009.9 - 0.0 - - - - - - -
 
Date/Time
EST
Temp

°C
Wind Pressure Rain
since 9am
mm
Weather Cloud Vis
km
Sea
Height
m
Swell
Dir
 
Speed
knots
Gust
knots
hPa Trend Height
m
Period
s
Dir
28/11:30pm 9.1 W 10 13 1010.0 - 0.0 - - - - - - -
28/11:00pm 9.3 W 11 14 1009.8 - 0.0 - - - - - - -
28/10:30pm 9.0 WNW 9 12 1009.8 - 0.0 - - - - - - -
28/10:00pm 8.5 W 7 9 1009.7 - 0.0 - - - - - - -
28/09:30pm 8.6 W 8 9 1009.7 - 0.0 - - - - - - -
28/09:00pm 9.0 W 6 8 1009.7 - 0.0 - - - - - - -
28/08:30pm 8.3 W 5 7 1009.4 - 0.0 - - - - - - -
28/08:00pm 8.4 W 6 7 1009.2 - 0.0 - - - - - - -
28/07:30pm 8.1 WSW 5 7 1009.2 - 0.0 - - - - - - -
28/07:00pm 8.7 WSW 6 7 1009.0 - 0.0 - - - - - - -
28/06:30pm 8.4 WSW 5 6 1008.6 - 0.0 - - - - - - -
28/06:00pm 8.6 WSW 4 5 1008.4 - 0.0 - - - - - - -
28/05:30pm 8.8 WSW 4 7 1008.2 - 0.0 - - - - - - -
28/05:00pm 8.8 W 4 5 1007.8 - 0.0 - - - - - - -
28/04:30pm 10.0 W 3 5 1007.5 - 0.0 - - - - - - -
28/04:00pm 11.4 W 3 4 1007.3 - 0.0 - - - - - - -
28/03:30pm 11.8 W 5 6 1007.2 - 0.0 - - - - - - -
28/03:00pm 12.1 W 5 5 1007.0 - 0.0 - - - - - - -
28/02:30pm 12.0 W 5 7 1006.8 - 0.0 - - - - - - -
28/02:00pm 12.1 W 7 8 1006.6 - 0.0 - - - - - - -
28/01:30pm 12.1 W 10 12 1006.5 - 0.0 - - - - - - -
28/01:00pm 11.8 W 11 13 1006.6 - 0.0 - - - - - - -
28/12:30pm 11.7 W 11 15 1006.8 - 0.0 - - - - - - -
28/12:00pm 11.5 WNW 10 13 1007.0 - 0.0 - - - - - - -
28/11:30am 11.6 WNW 9 11 1007.3 - 0.0 - - - - - - -
28/11:00am 11.1 WNW 8 12 1007.5 - 0.0 - - - - - - -
28/10:30am 10.4 WNW 9 11 1007.6 - 0.0 - - - - - - -
28/10:00am 9.9 NW 10 12 1007.5 - 0.0 - - - - - - -
28/09:30am 9.4 NW 9 13 1007.5 - 0.0 - - - - - - -
28/09:00am 8.8 NW 9 13 1007.5 - 0.8 - - - - - - -
28/08:30am 8.0 NW 9 12 1007.6 - 0.8 - - - - - - -
28/08:00am 7.4 NW 8 11 1007.7 - 0.8 - - - - - - -
28/07:30am 7.0 NNW 9 11 1007.4 - 0.8 - - - - - - -
28/07:00am 7.1 NW 7 10 1007.3 - 0.8 - - - - - - -
28/06:30am 7.3 NW 9 13 1007.3 - 0.8 - - - - - - -

Other Formats:

Comma delimited format used in spreadsheet applications
http://www.bom.gov.au/fwo/IDT60701/IDT60701.94951.axf

JavaScript Object Notation format (JSON) in row-major order
http://www.bom.gov.au/fwo/IDT60701/IDT60701.94951.json